createdAt,value
2018-11-11T00:01:41.119Z,9.30
2018-11-11T00:06:45.259Z,9.26
2018-11-11T00:11:49.038Z,9.29
2018-11-11T00:16:53.638Z,9.34
2018-11-11T00:21:57.499Z,9.40
2018-11-11T00:27:01.441Z,9.44
2018-11-11T00:32:05.031Z,9.44
2018-11-11T00:37:09.186Z,9.37
2018-11-11T00:42:12.790Z,9.38
2018-11-11T00:47:16.388Z,9.30
2018-11-11T00:52:20.241Z,9.32
2018-11-11T00:57:24.068Z,9.37
2018-11-11T01:02:27.969Z,9.35
2018-11-11T01:07:31.482Z,9.33
2018-11-11T01:12:35.002Z,9.32
2018-11-11T01:17:39.139Z,9.34
2018-11-11T01:22:43.139Z,9.32
2018-11-11T01:27:46.550Z,9.29
2018-11-11T01:32:50.087Z,9.32
2018-11-11T01:37:53.750Z,9.22
2018-11-11T01:42:57.887Z,9.24
2018-11-11T01:48:01.631Z,9.25
2018-11-11T01:53:05.974Z,9.23
2018-11-11T01:58:10.022Z,9.17
2018-11-11T02:03:13.740Z,9.22
2018-11-11T02:08:17.587Z,9.23
2018-11-11T02:13:21.630Z,9.22
2018-11-11T02:18:25.726Z,9.21
2018-11-11T02:23:29.575Z,9.25
2018-11-11T02:28:33.321Z,9.24
2018-11-11T02:33:37.419Z,9.28
2018-11-11T02:38:41.235Z,9.29
2018-11-11T02:43:45.077Z,9.29
2018-11-11T02:48:49.272Z,9.39
2018-11-11T02:53:52.839Z,9.36
2018-11-11T02:58:56.522Z,9.44
2018-11-11T03:04:00.075Z,9.54
2018-11-11T03:09:04.905Z,9.53
2018-11-11T03:14:08.579Z,9.49
2018-11-11T03:19:12.499Z,9.51
2018-11-11T03:24:16.207Z,9.52
2018-11-11T03:29:19.822Z,9.53
2018-11-11T03:34:23.737Z,9.59
2018-11-11T03:39:27.471Z,9.60
2018-11-11T03:44:31.223Z,9.60
2018-11-11T03:49:34.904Z,9.64
2018-11-11T03:54:38.764Z,9.59
2018-11-11T03:59:42.115Z,9.62
2018-11-11T04:04:45.522Z,9.64
2018-11-11T04:09:49.533Z,9.61
2018-11-11T04:14:53.330Z,9.60
2018-11-11T04:19:56.931Z,9.60
2018-11-11T04:25:01.493Z,9.61
2018-11-11T04:30:06.684Z,9.62
2018-11-11T04:35:10.439Z,9.65
2018-11-11T04:40:14.493Z,9.66
2018-11-11T04:45:18.157Z,9.60
2018-11-11T04:50:21.955Z,9.62
2018-11-11T04:55:25.815Z,9.55
2018-11-11T05:00:29.937Z,9.63
2018-11-11T05:05:33.759Z,9.69
2018-11-11T05:10:37.670Z,9.72
2018-11-11T05:15:41.823Z,9.71
2018-11-11T05:20:45.913Z,9.72
2018-11-11T05:25:49.903Z,9.77
2018-11-11T05:30:54.002Z,9.74
2018-11-11T05:35:58.228Z,9.75
2018-11-11T05:41:02.141Z,9.80
2018-11-11T05:46:06.217Z,9.80
2018-11-11T05:51:10.230Z,9.83
2018-11-11T05:56:14.306Z,9.87
2018-11-11T06:01:18.284Z,9.86
2018-11-11T06:06:22.472Z,9.80
2018-11-11T06:11:26.165Z,9.78
2018-11-11T06:16:30.010Z,9.76
2018-11-11T06:21:33.576Z,9.80
2018-11-11T06:26:37.156Z,9.77
2018-11-11T06:31:40.570Z,9.77
2018-11-11T06:36:43.885Z,9.78
2018-11-11T06:41:47.225Z,9.80
2018-11-11T06:46:50.746Z,9.87
2018-11-11T06:51:54.687Z,9.90
2018-11-11T06:56:58.643Z,9.87
2018-11-11T07:02:02.365Z,9.95
2018-11-11T07:07:06.201Z,10.04
2018-11-11T07:12:09.874Z,10.13
2018-11-11T07:17:13.470Z,10.16
2018-11-11T07:22:17.351Z,10.20
2018-11-11T07:27:20.913Z,10.23
2018-11-11T07:32:24.510Z,10.24
2018-11-11T07:37:28.055Z,10.36
2018-11-11T07:42:32.274Z,10.34
2018-11-11T07:47:35.833Z,10.48
2018-11-11T07:52:39.501Z,10.50
2018-11-11T07:57:43.283Z,10.70
2018-11-11T08:02:47.570Z,10.94
2018-11-11T08:13:33.995Z,10.97
2018-11-11T08:18:37.748Z,11.01
2018-11-11T08:23:41.236Z,11.22
2018-11-11T08:28:45.499Z,11.53
2018-11-11T08:33:49.440Z,11.73
2018-11-11T08:38:53.191Z,11.87
2018-11-11T08:43:56.725Z,11.80
2018-11-11T08:49:00.371Z,11.88
2018-11-11T08:54:04.355Z,12.09
2018-11-11T08:59:07.823Z,12.02
2018-11-11T09:04:11.347Z,11.96
2018-11-11T09:09:14.814Z,11.93
2018-11-11T09:14:18.635Z,12.26
2018-11-11T09:19:22.626Z,12.28
2018-11-11T09:24:27.738Z,12.38
2018-11-11T09:29:31.652Z,12.70
2018-11-11T09:34:35.541Z,13.02
2018-11-11T09:39:39.289Z,13.13
2018-11-11T09:44:43.152Z,12.89
2018-11-11T09:49:46.998Z,12.84
2018-11-11T09:54:50.673Z,12.83
2018-11-11T09:59:54.509Z,12.66
2018-11-11T10:05:10.276Z,12.39
2018-11-11T10:10:50.612Z,12.38
2018-11-11T10:16:34.789Z,12.09
2018-11-11T10:23:51.443Z,11.65
2018-11-11T10:29:05.517Z,11.60
2018-11-11T10:34:18.599Z,11.48
2018-11-11T10:39:36.884Z,11.60
2018-11-11T10:44:47.093Z,11.79
2018-11-11T10:49:53.708Z,11.89
2018-11-11T10:54:57.350Z,12.10
2018-11-11T11:00:01.227Z,12.43
2018-11-11T11:05:09.893Z,13.85
2018-11-11T11:10:13.957Z,13.80
2018-11-11T11:15:19.099Z,13.15
2018-11-11T11:20:22.968Z,14.22
2018-11-11T11:25:27.040Z,21.68
2018-11-11T11:30:30.738Z,23.68
2018-11-11T11:35:34.576Z,23.98
2018-11-11T11:40:37.961Z,25.08
2018-11-11T11:45:41.342Z,24.53
2018-11-11T11:50:44.888Z,27.37
2018-11-11T11:55:48.742Z,29.48
2018-11-11T12:00:52.362Z,29.64
2018-11-11T12:05:56.111Z,28.00
2018-11-11T12:12:10.334Z,28.36
2018-11-11T12:17:14.157Z,23.53
2018-11-11T12:22:17.843Z,24.73
2018-11-11T12:27:21.561Z,26.13
2018-11-11T12:32:25.098Z,29.42
2018-11-11T12:37:28.742Z,27.73
2018-11-11T12:42:32.226Z,26.27
2018-11-11T12:47:37.128Z,24.35
2018-11-11T12:52:40.730Z,26.83
2018-11-11T12:57:44.293Z,29.18
2018-11-11T13:02:47.600Z,26.00
2018-11-11T13:07:50.978Z,30.17
2018-11-11T13:12:54.272Z,28.60
2018-11-11T13:17:58.418Z,22.39
2018-11-11T13:23:03.448Z,18.84
2018-11-11T13:28:07.201Z,17.55
2018-11-11T13:33:10.862Z,16.70
2018-11-11T13:38:14.718Z,16.61
2018-11-11T13:43:18.850Z,16.32
2018-11-11T13:48:22.534Z,16.07
2018-11-11T13:53:26.292Z,15.83
2018-11-11T13:58:30.602Z,15.67
2018-11-11T14:03:34.390Z,15.52
2018-11-11T14:08:38.108Z,15.54
2018-11-11T14:13:41.609Z,15.63
2018-11-11T14:18:45.332Z,15.78
2018-11-11T14:23:48.649Z,15.68
2018-11-11T14:28:52.973Z,15.47
2018-11-11T14:33:56.785Z,15.28
2018-11-11T14:39:00.442Z,15.14
2018-11-11T14:44:03.912Z,15.11
2018-11-11T14:49:08.173Z,14.95
2018-11-11T14:54:11.809Z,14.79
2018-11-11T14:59:15.802Z,14.50
2018-11-11T15:04:21.600Z,14.31
2018-11-11T15:09:25.294Z,14.18
2018-11-11T15:14:28.821Z,14.14
2018-11-11T15:19:32.447Z,14.09
2018-11-11T15:24:35.529Z,13.93
2018-11-11T15:29:38.976Z,13.79
2018-11-11T15:34:42.473Z,13.61
2018-11-11T15:39:45.881Z,13.53
2018-11-11T15:44:49.181Z,13.49
2018-11-11T15:49:52.733Z,13.45
2018-11-11T15:54:56.253Z,13.39
2018-11-11T15:59:59.822Z,13.31
2018-11-11T16:05:03.855Z,13.27
2018-11-11T16:10:08.732Z,13.24
2018-11-11T16:15:18.451Z,13.17
2018-11-11T16:20:23.333Z,13.01
2018-11-11T16:25:27.016Z,12.95
2018-11-11T16:30:33.232Z,12.93
2018-11-11T16:35:42.504Z,12.89
2018-11-11T16:40:46.051Z,12.88
2018-11-11T16:45:49.540Z,12.76
2018-11-11T16:50:53.429Z,12.72
2018-11-11T16:55:56.749Z,12.78
2018-11-11T17:01:00.303Z,12.81
2018-11-11T17:06:05.236Z,12.75
2018-11-11T17:11:08.953Z,12.67
2018-11-11T17:16:20.898Z,12.62
2018-11-11T17:21:24.788Z,12.66
2018-11-11T17:26:28.564Z,12.65
2018-11-11T17:31:32.032Z,12.61
2018-11-11T17:36:36.326Z,12.50
2018-11-11T17:41:40.885Z,12.51
2018-11-11T17:46:44.592Z,12.54
2018-11-11T17:51:48.223Z,12.51
2018-11-11T17:56:52.294Z,12.37
2018-11-11T18:01:55.818Z,12.37
2018-11-11T18:06:59.651Z,12.35
2018-11-11T18:12:03.557Z,12.27
2018-11-11T18:17:07.276Z,12.25
2018-11-11T18:22:14.465Z,12.26
2018-11-11T18:27:19.121Z,12.27
2018-11-11T18:32:23.598Z,12.23
2018-11-11T18:37:27.572Z,12.24
2018-11-11T18:42:32.438Z,12.28
2018-11-11T18:47:36.988Z,12.23
2018-11-11T18:52:43.805Z,12.26
2018-11-11T18:57:47.961Z,12.22
2018-11-11T19:02:56.254Z,12.30
2018-11-11T19:08:03.554Z,12.33
2018-11-11T19:13:09.989Z,12.38
2018-11-11T19:18:14.180Z,12.38
2018-11-11T19:23:19.303Z,12.37
2018-11-11T19:28:24.802Z,12.41
2018-11-11T19:33:30.761Z,12.38
2018-11-11T19:38:34.790Z,12.37
2018-11-11T19:43:38.527Z,12.36
2018-11-11T19:48:42.938Z,12.34
2018-11-11T19:53:46.829Z,12.39
2018-11-11T19:58:50.695Z,12.40
2018-11-11T20:03:54.375Z,12.43
2018-11-11T20:08:58.855Z,12.37
2018-11-11T20:14:02.677Z,12.37
2018-11-11T20:19:06.493Z,12.42
2018-11-11T20:24:10.117Z,12.40
2018-11-11T20:29:13.907Z,12.35
2018-11-11T20:34:17.660Z,12.36
2018-11-11T20:39:21.676Z,12.42
2018-11-11T20:44:26.361Z,12.41
2018-11-11T20:49:30.461Z,12.40
2018-11-11T20:54:37.790Z,12.43
2018-11-11T20:59:41.723Z,12.49
2018-11-11T21:04:45.507Z,12.53
2018-11-11T21:09:49.228Z,12.54
2018-11-11T21:14:53.041Z,12.55
2018-11-11T21:19:56.458Z,12.60
2018-11-11T21:25:00.227Z,12.63
2018-11-11T21:30:04.000Z,12.66
2018-11-11T21:35:07.625Z,12.64
2018-11-11T21:40:13.750Z,12.64
2018-11-11T21:45:18.598Z,12.62
2018-11-11T21:50:23.270Z,12.61
2018-11-11T21:55:26.765Z,12.63
2018-11-11T22:00:30.311Z,12.61
2018-11-11T22:05:33.837Z,12.58
2018-11-11T22:10:37.444Z,12.55
2018-11-11T22:15:41.030Z,12.52
2018-11-11T22:20:44.677Z,12.45
2018-11-11T22:25:48.022Z,12.42
2018-11-11T22:30:51.503Z,12.38
2018-11-11T22:35:55.099Z,12.32
2018-11-11T22:40:58.911Z,12.23
2018-11-11T22:46:02.353Z,12.19
2018-11-11T22:51:06.030Z,12.13
2018-11-11T22:56:09.354Z,12.10
2018-11-11T23:01:18.125Z,12.09
2018-11-11T23:06:21.453Z,12.07
2018-11-11T23:11:26.557Z,12.03
2018-11-11T23:16:31.171Z,11.94
2018-11-11T23:21:36.228Z,11.88
2018-11-11T23:26:40.261Z,11.83
2018-11-11T23:31:44.528Z,11.83
2018-11-11T23:36:54.525Z,11.84
2018-11-11T23:42:13.266Z,11.83
2018-11-11T23:47:17.532Z,11.91
2018-11-11T23:52:23.036Z,11.97
2018-11-11T23:57:27.330Z,11.99
